createdAt,value
2022-11-17T00:00:42.674Z,1.90
2022-11-17T00:03:16.384Z,2.13
2022-11-17T00:05:44.773Z,1.42
2022-11-17T00:08:11.801Z,2.00
2022-11-17T00:10:38.772Z,2.20
2022-11-17T00:13:24.327Z,1.85
2022-11-17T00:15:51.356Z,2.33
2022-11-17T00:18:36.616Z,2.50
2022-11-17T00:21:19.750Z,1.50
2022-11-17T00:23:47.419Z,1.30
2022-11-17T00:26:26.369Z,1.73
2022-11-17T00:29:02.954Z,2.70
2022-11-17T00:31:51.804Z,2.45
2022-11-17T00:34:23.518Z,2.10
2022-11-17T00:36:55.416Z,1.65
2022-11-17T00:39:24.720Z,3.25
2022-11-17T00:41:51.621Z,2.50
2022-11-17T00:44:18.665Z,2.15
2022-11-17T00:46:45.650Z,2.83
2022-11-17T00:49:12.784Z,2.63
2022-11-17T00:51:39.698Z,2.75
2022-11-17T00:54:09.792Z,2.55
2022-11-17T00:56:37.043Z,2.90
2022-11-17T00:59:03.972Z,3.70
2022-11-17T01:01:31.466Z,3.53
2022-11-17T01:04:04.120Z,2.63
2022-11-17T01:06:37.943Z,2.75
2022-11-17T01:09:10.029Z,2.17
2022-11-17T01:11:37.112Z,1.70
2022-11-17T01:14:04.656Z,2.40
2022-11-17T01:16:32.960Z,4.18
2022-11-17T01:19:02.894Z,1.50
2022-11-17T01:21:31.446Z,3.63
2022-11-17T01:24:00.736Z,2.90
2022-11-17T01:26:34.488Z,3.00
2022-11-17T01:29:04.260Z,3.33
2022-11-17T01:31:35.418Z,2.28
2022-11-17T01:34:02.399Z,2.88
2022-11-17T01:36:56.862Z,2.38
2022-11-17T01:39:26.113Z,3.97
2022-11-17T01:41:54.282Z,1.77
2022-11-17T01:44:36.327Z,2.95
2022-11-17T01:47:07.985Z,1.52
2022-11-17T01:49:34.875Z,2.40
2022-11-17T01:52:06.649Z,3.03
2022-11-17T01:54:37.491Z,2.20
2022-11-17T01:57:11.938Z,2.30
2022-11-17T01:59:42.744Z,3.80
2022-11-17T02:02:10.152Z,1.58
2022-11-17T02:04:49.734Z,2.90
2022-11-17T02:07:28.748Z,3.75
2022-11-17T02:09:57.214Z,3.08
2022-11-17T02:12:26.851Z,2.00
2022-11-17T02:14:55.097Z,2.47
2022-11-17T02:17:23.923Z,1.40
2022-11-17T02:20:17.351Z,2.05
2022-11-17T02:23:28.668Z,2.03
2022-11-17T02:26:21.937Z,2.63
2022-11-17T02:29:21.901Z,2.03
2022-11-17T02:32:09.733Z,1.10
2022-11-17T02:34:51.908Z,1.17
2022-11-17T02:37:45.412Z,0.80
2022-11-17T02:40:34.441Z,1.27
2022-11-17T02:43:32.007Z,1.50
2022-11-17T02:46:04.889Z,2.28
2022-11-17T02:48:37.561Z,1.33
2022-11-17T02:51:08.754Z,1.00
2022-11-17T02:53:37.410Z,1.08
2022-11-17T02:56:05.132Z,1.38
2022-11-17T02:58:32.140Z,0.70
2022-11-17T03:01:10.765Z,1.58
2022-11-17T03:04:21.655Z,1.02
2022-11-17T03:07:00.549Z,1.00
2022-11-17T03:10:07.145Z,0.70
2022-11-17T03:12:53.017Z,0.75
2022-11-17T03:15:53.721Z,0.68
2022-11-17T03:18:30.056Z,0.90
2022-11-17T03:21:29.736Z,0.85
2022-11-17T03:24:31.428Z,0.82
2022-11-17T03:27:10.214Z,0.60
2022-11-17T03:29:40.868Z,0.93
2022-11-17T03:32:09.489Z,1.38
2022-11-17T03:34:42.739Z,0.70
2022-11-17T03:37:12.600Z,1.00
2022-11-17T03:39:48.754Z,1.00
2022-11-17T03:42:24.692Z,1.30
2022-11-17T03:44:56.723Z,2.05
2022-11-17T03:47:26.788Z,1.23
2022-11-17T03:50:14.223Z,0.90
2022-11-17T03:52:42.454Z,1.20
2022-11-17T03:55:10.585Z,1.92
2022-11-17T03:58:08.782Z,1.98
2022-11-17T04:00:39.185Z,0.75
2022-11-17T04:03:06.499Z,2.00
2022-11-17T04:05:33.383Z,1.60
2022-11-17T04:08:00.320Z,2.10
2022-11-17T04:10:27.298Z,1.58
2022-11-17T04:13:13.190Z,1.48
2022-11-17T04:15:59.346Z,1.58
2022-11-17T04:18:27.209Z,1.63
2022-11-17T04:20:56.488Z,2.03
2022-11-17T04:23:25.005Z,1.50
2022-11-17T04:26:13.381Z,2.05
2022-11-17T04:28:45.708Z,1.27
2022-11-17T04:31:19.594Z,1.65
2022-11-17T04:33:56.145Z,1.38
2022-11-17T04:36:51.941Z,1.33
2022-11-17T04:39:18.939Z,2.37
2022-11-17T04:41:54.850Z,1.38
2022-11-17T04:44:28.197Z,1.05
2022-11-17T04:46:56.640Z,1.33
2022-11-17T04:49:25.413Z,1.08
2022-11-17T04:51:53.434Z,0.47
2022-11-17T04:54:24.740Z,1.27
2022-11-17T04:56:54.321Z,1.20
2022-11-17T04:59:21.397Z,1.10
2022-11-17T05:01:48.431Z,1.98
2022-11-17T05:04:38.567Z,1.38
2022-11-17T05:07:07.811Z,1.60
2022-11-17T05:09:35.041Z,1.73
2022-11-17T05:12:20.250Z,2.50
2022-11-17T05:14:49.116Z,2.70
2022-11-17T05:17:16.914Z,1.45
2022-11-17T05:19:48.264Z,1.98
2022-11-17T05:22:41.033Z,1.90
2022-11-17T05:25:08.814Z,1.90
2022-11-17T05:27:36.230Z,2.05
2022-11-17T05:30:06.241Z,2.50
2022-11-17T05:32:33.237Z,2.22
2022-11-17T05:35:00.137Z,2.75
2022-11-17T05:37:27.246Z,2.50
2022-11-17T05:39:54.242Z,2.65
2022-11-17T05:42:21.224Z,3.20
2022-11-17T05:44:48.772Z,2.90
2022-11-17T05:47:16.265Z,2.45
2022-11-17T05:49:43.293Z,1.90
2022-11-17T05:52:10.430Z,2.05
2022-11-17T05:54:37.451Z,1.73
2022-11-17T05:57:16.650Z,2.95
2022-11-17T05:59:49.685Z,2.33
2022-11-17T06:02:29.149Z,1.95
2022-11-17T06:04:56.026Z,1.88
2022-11-17T06:07:23.251Z,3.00
2022-11-17T06:09:51.295Z,1.40
2022-11-17T06:12:18.273Z,1.27
2022-11-17T06:14:45.185Z,1.23
2022-11-17T06:17:33.920Z,1.02
2022-11-17T06:20:04.772Z,1.30
2022-11-17T06:22:32.277Z,1.52
2022-11-17T06:25:00.345Z,2.15
2022-11-17T06:27:29.165Z,1.17
2022-11-17T06:29:57.265Z,1.67
2022-11-17T06:32:24.264Z,2.05
2022-11-17T06:34:55.778Z,2.55
2022-11-17T06:37:24.817Z,1.85
2022-11-17T06:39:53.260Z,1.25
2022-11-17T06:42:40.147Z,1.80
2022-11-17T06:45:08.021Z,1.08
2022-11-17T06:47:34.994Z,2.05
2022-11-17T06:50:02.486Z,2.78
2022-11-17T06:52:29.565Z,2.80
2022-11-17T06:54:56.552Z,3.00
2022-11-17T06:57:23.727Z,1.65
2022-11-17T06:59:52.992Z,2.55
2022-11-17T07:02:20.026Z,2.60
2022-11-17T07:04:46.911Z,1.13
2022-11-17T07:07:14.605Z,1.15
2022-11-17T07:09:41.743Z,2.60
2022-11-17T07:12:08.954Z,2.40
2022-11-17T07:14:35.985Z,1.10
2022-11-17T07:17:02.972Z,2.03
2022-11-17T07:19:29.938Z,2.72
2022-11-17T07:21:56.973Z,1.80
2022-11-17T07:24:23.916Z,1.10
2022-11-17T07:26:51.030Z,1.38
2022-11-17T07:29:18.097Z,0.63
2022-11-17T07:31:45.043Z,0.60
2022-11-17T07:34:12.169Z,0.93
2022-11-17T07:36:39.236Z,0.80
2022-11-17T07:39:06.585Z,0.88
2022-11-17T07:41:33.483Z,0.52
2022-11-17T07:44:00.510Z,0.43
2022-11-17T07:46:27.383Z,0.60
2022-11-17T07:48:55.379Z,0.45
2022-11-17T07:51:22.413Z,0.70
2022-11-17T07:53:49.447Z,0.80
2022-11-17T07:56:16.527Z,0.50
2022-11-17T07:58:43.685Z,0.70
2022-11-17T08:01:15.742Z,1.95
2022-11-17T08:03:44.046Z,1.13
2022-11-17T08:06:11.383Z,1.00
2022-11-17T08:08:40.365Z,0.98
2022-11-17T08:11:10.763Z,0.77
2022-11-17T08:13:39.535Z,0.57
2022-11-17T08:16:09.295Z,0.80
2022-11-17T08:18:37.614Z,0.63
2022-11-17T08:21:14.112Z,0.90
2022-11-17T08:23:42.689Z,1.40
2022-11-17T08:26:14.463Z,0.57
2022-11-17T08:28:41.502Z,1.23
2022-11-17T08:31:09.228Z,1.60
2022-11-17T08:33:36.362Z,0.85
2022-11-17T08:36:07.087Z,0.70
2022-11-17T08:38:35.161Z,0.77
2022-11-17T08:41:07.848Z,1.60
2022-11-17T08:43:35.603Z,0.60
2022-11-17T08:46:03.546Z,0.73
2022-11-17T08:48:31.922Z,0.80
2022-11-17T08:51:05.557Z,0.60
2022-11-17T08:53:32.734Z,0.70
2022-11-17T08:55:59.841Z,0.70
2022-11-17T08:58:26.989Z,0.75
2022-11-17T09:00:54.777Z,0.90
2022-11-17T09:03:21.955Z,0.77
2022-11-17T09:05:49.084Z,0.60
2022-11-17T09:08:44.342Z,0.30
2022-11-17T09:11:10.639Z,0.60
2022-11-17T09:13:39.253Z,0.57
2022-11-17T09:16:09.715Z,0.55
2022-11-17T09:18:39.206Z,0.95
2022-11-17T09:21:16.468Z,0.47
2022-11-17T09:23:44.141Z,0.60
2022-11-17T09:26:14.678Z,0.85
2022-11-17T09:28:43.054Z,0.90
2022-11-17T09:31:17.495Z,0.50
2022-11-17T09:33:45.026Z,1.00
2022-11-17T09:36:14.430Z,0.70
2022-11-17T09:38:42.069Z,0.35
2022-11-17T09:41:23.498Z,0.40
2022-11-17T09:44:26.981Z,0.43
2022-11-17T09:47:18.570Z,0.38
2022-11-17T09:50:01.740Z,0.85
2022-11-17T09:52:55.128Z,0.50
2022-11-17T09:55:50.492Z,0.45
2022-11-17T09:58:52.409Z,0.40
2022-11-17T10:01:22.013Z,0.50
2022-11-17T10:03:51.315Z,0.40
2022-11-17T10:06:25.934Z,0.98
2022-11-17T10:09:00.658Z,0.60
2022-11-17T10:11:35.983Z,1.00
2022-11-17T10:14:08.874Z,0.60
2022-11-17T10:16:38.184Z,0.45
2022-11-17T10:19:22.977Z,0.85
2022-11-17T10:22:14.757Z,0.30
2022-11-17T10:24:52.246Z,0.40
2022-11-17T10:27:30.349Z,0.47
2022-11-17T10:30:19.593Z,0.60
2022-11-17T10:32:56.493Z,0.47
2022-11-17T10:35:27.783Z,0.65
2022-11-17T10:38:02.251Z,0.90
2022-11-17T10:40:53.159Z,0.55
2022-11-17T10:43:25.114Z,0.65
2022-11-17T10:45:59.051Z,0.70
2022-11-17T10:48:34.225Z,0.20
2022-11-17T10:51:10.562Z,0.55
2022-11-17T10:53:46.272Z,0.52
2022-11-17T10:56:21.855Z,0.45
2022-11-17T10:59:15.977Z,0.40
2022-11-17T11:01:47.496Z,0.68
2022-11-17T11:04:41.484Z,1.33
2022-11-17T11:07:22.796Z,0.57
2022-11-17T11:10:06.609Z,0.43
2022-11-17T11:12:57.003Z,0.60
2022-11-17T11:15:28.992Z,0.38
2022-11-17T11:17:56.949Z,0.77
2022-11-17T11:20:46.712Z,0.82
2022-11-17T11:23:44.940Z,0.65
2022-11-17T11:26:42.062Z,0.70
2022-11-17T11:29:50.978Z,0.90
2022-11-17T11:32:59.374Z,0.40
2022-11-17T11:35:52.919Z,0.60
2022-11-17T11:39:07.015Z,0.30
2022-11-17T11:41:36.724Z,0.40
2022-11-17T11:44:17.879Z,0.20
2022-11-17T11:46:56.656Z,0.68
2022-11-17T11:50:05.433Z,0.50
2022-11-17T11:52:36.522Z,0.40
2022-11-17T11:55:29.114Z,0.73
2022-11-17T11:58:06.097Z,0.20
2022-11-17T12:00:34.176Z,0.20
2022-11-17T12:03:37.004Z,0.50
2022-11-17T12:06:40.798Z,0.50
2022-11-17T12:09:45.033Z,1.05
2022-11-17T12:12:26.841Z,0.60
2022-11-17T12:15:19.347Z,0.70
2022-11-17T12:18:25.223Z,0.52
2022-11-17T12:21:13.931Z,0.50
2022-11-17T12:24:21.604Z,1.05
2022-11-17T12:26:48.637Z,0.80
2022-11-17T12:29:21.515Z,0.57
2022-11-17T12:31:51.983Z,0.40
2022-11-17T12:34:37.005Z,0.57
2022-11-17T12:37:15.664Z,0.43
2022-11-17T12:40:04.586Z,0.90
2022-11-17T12:42:34.396Z,0.60
2022-11-17T12:45:13.508Z,0.90
2022-11-17T12:47:59.451Z,0.47
2022-11-17T12:51:03.374Z,1.63
2022-11-17T12:53:38.395Z,0.50
2022-11-17T12:56:23.180Z,0.55
2022-11-17T12:59:14.346Z,0.60
2022-11-17T13:02:32.234Z,0.77
2022-11-17T13:05:14.651Z,0.80
2022-11-17T13:07:42.002Z,0.60
2022-11-17T13:10:31.086Z,0.30
2022-11-17T13:13:16.523Z,0.60
2022-11-17T13:15:44.603Z,0.30
2022-11-17T13:18:33.804Z,0.22
2022-11-17T13:21:02.256Z,0.30
2022-11-17T13:23:34.479Z,1.13
2022-11-17T13:26:21.204Z,0.35
2022-11-17T13:28:51.408Z,0.40
2022-11-17T13:31:25.753Z,0.60
2022-11-17T13:34:21.446Z,0.40
2022-11-17T13:37:00.449Z,0.40
2022-11-17T13:39:28.478Z,0.50
2022-11-17T13:41:57.843Z,0.40
2022-11-17T13:44:27.944Z,0.57
2022-11-17T13:47:49.203Z,3.40
2022-11-17T13:50:36.376Z,0.40
2022-11-17T13:53:09.117Z,0.60
2022-11-17T13:55:36.483Z,0.40
2022-11-17T13:58:26.229Z,0.75
2022-11-17T14:01:00.099Z,0.70
2022-11-17T14:03:40.504Z,0.98
2022-11-17T14:06:13.206Z,0.32
2022-11-17T14:08:42.894Z,0.70
2022-11-17T14:11:12.502Z,0.93
2022-11-17T14:13:51.896Z,0.73
2022-11-17T14:16:40.588Z,0.65
2022-11-17T14:19:16.693Z,0.50
2022-11-17T14:22:30.862Z,0.70
2022-11-17T14:24:59.027Z,0.80
2022-11-17T14:27:32.051Z,1.42
2022-11-17T14:29:59.075Z,0.80
2022-11-17T14:32:26.123Z,0.50
2022-11-17T14:34:55.645Z,0.82
2022-11-17T14:37:22.724Z,0.70
2022-11-17T14:39:49.731Z,0.30
2022-11-17T14:42:16.872Z,0.65
2022-11-17T14:44:45.300Z,0.98
2022-11-17T14:47:12.385Z,1.25
2022-11-17T14:49:39.351Z,1.00
2022-11-17T14:52:06.316Z,0.80
2022-11-17T14:54:33.215Z,1.40
2022-11-17T14:57:00.132Z,0.95
2022-11-17T14:59:27.103Z,1.77
2022-11-17T15:01:54.568Z,0.70
2022-11-17T15:04:48.817Z,1.15
2022-11-17T15:07:08.511Z,1.58
2022-11-17T15:09:35.579Z,0.90
2022-11-17T15:12:02.511Z,0.60
2022-11-17T15:14:29.453Z,1.08
2022-11-17T15:16:56.428Z,0.60
2022-11-17T15:19:23.346Z,0.90
2022-11-17T15:21:50.376Z,0.85
2022-11-17T15:24:17.828Z,0.90
2022-11-17T15:26:45.075Z,0.80
2022-11-17T15:29:15.554Z,0.68
2022-11-17T15:31:43.084Z,0.50
2022-11-17T15:34:18.774Z,1.10
2022-11-17T15:36:48.430Z,1.20
2022-11-17T15:39:16.387Z,1.17
2022-11-17T15:41:43.840Z,0.73
2022-11-17T15:44:10.834Z,1.25
2022-11-17T15:46:39.652Z,1.83
2022-11-17T15:49:10.110Z,1.95
2022-11-17T15:51:37.085Z,2.10
2022-11-17T15:54:04.439Z,2.63
2022-11-17T15:56:36.909Z,1.27
2022-11-17T15:59:05.369Z,1.77
2022-11-17T16:01:38.545Z,0.73
2022-11-17T16:04:12.063Z,0.90
2022-11-17T16:06:41.796Z,0.90
2022-11-17T16:09:10.180Z,0.80
2022-11-17T16:11:37.857Z,0.90
2022-11-17T16:14:05.505Z,0.85
2022-11-17T16:16:36.290Z,0.90
2022-11-17T16:19:04.425Z,1.20
2022-11-17T16:21:31.359Z,1.50
2022-11-17T16:24:00.997Z,1.48
2022-11-17T16:26:29.159Z,1.10
2022-11-17T16:29:07.549Z,0.93
2022-11-17T16:31:36.434Z,0.80
2022-11-17T16:34:07.248Z,0.80
2022-11-17T16:36:38.246Z,0.88
2022-11-17T16:39:09.305Z,0.90
2022-11-17T16:41:39.566Z,1.33
2022-11-17T16:44:12.387Z,0.90
2022-11-17T16:46:46.429Z,1.67
2022-11-17T16:49:17.133Z,1.50
2022-11-17T16:51:49.680Z,1.33
2022-11-17T16:54:18.286Z,0.80
2022-11-17T16:56:45.380Z,1.30
2022-11-17T16:59:13.452Z,1.23
2022-11-17T17:01:40.842Z,1.20
2022-11-17T17:04:10.134Z,1.02
2022-11-17T17:06:41.340Z,0.80
2022-11-17T17:09:11.082Z,1.30
2022-11-17T17:11:38.496Z,1.40
2022-11-17T17:14:09.218Z,1.00
2022-11-17T17:16:37.724Z,1.10
2022-11-17T17:19:07.614Z,1.17
2022-11-17T17:21:36.886Z,1.73
2022-11-17T17:24:04.842Z,1.55
2022-11-17T17:26:32.976Z,1.70
2022-11-17T17:29:01.174Z,1.05
2022-11-17T17:31:37.669Z,1.42
2022-11-17T17:34:06.243Z,1.52
2022-11-17T17:36:34.734Z,2.67
2022-11-17T17:39:02.845Z,2.10
2022-11-17T17:41:34.417Z,1.15
2022-11-17T17:44:07.721Z,1.10
2022-11-17T17:46:37.978Z,0.73
2022-11-17T17:49:05.620Z,1.45
2022-11-17T17:51:32.598Z,0.70
2022-11-17T17:54:02.208Z,2.03
2022-11-17T17:56:32.664Z,1.25
2022-11-17T17:58:59.827Z,1.05
2022-11-17T18:01:29.777Z,1.70
2022-11-17T18:04:05.854Z,1.55
2022-11-17T18:06:43.856Z,1.20
2022-11-17T18:09:12.423Z,1.27
2022-11-17T18:11:45.859Z,1.13
2022-11-17T18:14:13.747Z,0.93
2022-11-17T18:16:40.850Z,1.27
2022-11-17T18:19:09.663Z,1.38
2022-11-17T18:21:36.830Z,1.17
2022-11-17T18:24:04.463Z,1.52
2022-11-17T18:26:34.432Z,1.98
2022-11-17T18:29:05.558Z,2.08
2022-11-17T18:31:36.354Z,1.20
2022-11-17T18:34:16.410Z,1.40
2022-11-17T18:36:43.495Z,1.30
2022-11-17T18:39:10.855Z,1.48
2022-11-17T18:41:38.295Z,1.42
2022-11-17T18:44:05.466Z,3.40
2022-11-17T18:46:33.672Z,3.60
2022-11-17T18:49:02.209Z,1.67
2022-11-17T18:51:31.486Z,1.27
2022-11-17T18:54:00.463Z,1.55
2022-11-17T18:56:35.227Z,1.63
2022-11-17T18:59:11.145Z,3.00
2022-11-17T19:01:41.304Z,3.78
2022-11-17T19:04:08.995Z,1.50
2022-11-17T19:06:36.159Z,1.45
2022-11-17T19:09:03.623Z,2.03
2022-11-17T19:11:35.060Z,1.60
2022-11-17T19:14:05.622Z,1.45
2022-11-17T19:16:44.565Z,1.02
2022-11-17T19:19:13.296Z,1.88
2022-11-17T19:21:40.882Z,1.20
2022-11-17T19:24:09.337Z,1.63
2022-11-17T19:26:36.599Z,1.60
2022-11-17T19:29:15.687Z,1.75
2022-11-17T19:31:44.842Z,1.10
2022-11-17T19:34:12.190Z,1.15
2022-11-17T19:36:39.620Z,1.10
2022-11-17T19:39:06.676Z,1.27
2022-11-17T19:41:36.132Z,1.10
2022-11-17T19:44:06.661Z,1.40
2022-11-17T19:46:36.393Z,3.05
2022-11-17T19:49:06.135Z,1.73
2022-11-17T19:51:36.731Z,2.30
2022-11-17T19:54:08.110Z,2.03
2022-11-17T19:56:36.169Z,1.90
2022-11-17T19:59:06.195Z,1.33
2022-11-17T20:01:34.194Z,1.58
2022-11-17T20:04:02.159Z,2.20
2022-11-17T20:06:36.261Z,1.48
2022-11-17T20:09:11.603Z,2.03
2022-11-17T20:11:39.784Z,2.08
2022-11-17T20:14:07.146Z,2.70
2022-11-17T20:16:34.221Z,2.20
2022-11-17T20:19:02.007Z,3.15
2022-11-17T20:21:30.952Z,2.25
2022-11-17T20:23:59.285Z,2.95
2022-11-17T20:26:33.485Z,2.10
2022-11-17T20:29:01.291Z,1.73
2022-11-17T20:31:31.434Z,2.42
2022-11-17T20:34:00.851Z,2.63
2022-11-17T20:36:31.234Z,2.00
2022-11-17T20:39:01.176Z,2.90
2022-11-17T20:41:28.740Z,2.05
2022-11-17T20:43:58.214Z,2.08
2022-11-17T20:46:26.415Z,2.53
2022-11-17T20:48:53.789Z,2.10
2022-11-17T20:51:23.737Z,2.15
2022-11-17T20:53:51.262Z,1.70
2022-11-17T20:56:19.077Z,2.30
2022-11-17T20:58:46.536Z,1.60
2022-11-17T21:01:20.181Z,1.73
2022-11-17T21:03:47.707Z,2.20
2022-11-17T21:06:15.311Z,1.98
2022-11-17T21:08:44.155Z,2.10
2022-11-17T21:11:34.926Z,2.30
2022-11-17T21:14:03.351Z,2.40
2022-11-17T21:16:30.310Z,2.13
2022-11-17T21:18:58.104Z,2.50
2022-11-17T21:21:25.191Z,2.60
2022-11-17T21:23:54.315Z,2.00
2022-11-17T21:26:22.889Z,2.35
2022-11-17T21:28:50.422Z,1.75
2022-11-17T21:31:26.144Z,2.55
2022-11-17T21:36:27.088Z,2.08
2022-11-17T21:38:54.598Z,2.22
2022-11-17T21:41:27.876Z,2.60
2022-11-17T21:43:58.951Z,2.50
2022-11-17T21:46:29.104Z,2.17
2022-11-17T21:48:58.622Z,1.50
2022-11-17T21:51:34.667Z,1.60
2022-11-17T21:54:05.321Z,1.63
2022-11-17T21:56:32.797Z,1.98
2022-11-17T21:59:11.601Z,2.22
2022-11-17T22:01:39.276Z,2.30
2022-11-17T22:04:06.429Z,2.67
2022-11-17T22:06:33.523Z,2.60
2022-11-17T22:09:00.530Z,1.65
2022-11-17T22:11:37.190Z,1.95
2022-11-17T22:14:13.606Z,3.03
2022-11-17T22:16:52.682Z,2.40
2022-11-17T22:19:21.916Z,1.98
2022-11-17T22:21:52.073Z,2.30
2022-11-17T22:24:19.467Z,2.45
2022-11-17T22:26:47.019Z,2.05
2022-11-17T22:29:18.704Z,1.98
2022-11-17T22:31:48.562Z,2.75
2022-11-17T22:34:17.475Z,2.55
2022-11-17T22:36:44.530Z,2.58
2022-11-17T22:39:11.750Z,2.08
2022-11-17T22:41:41.364Z,2.10
2022-11-17T22:44:12.678Z,2.42
2022-11-17T22:46:43.097Z,2.25
2022-11-17T22:49:10.416Z,2.58
2022-11-17T22:51:56.017Z,2.13
2022-11-17T22:54:23.020Z,2.45
2022-11-17T22:56:50.023Z,2.63
2022-11-17T22:59:17.379Z,1.90
2022-11-17T23:01:44.480Z,2.30
2022-11-17T23:04:12.066Z,3.65
2022-11-17T23:06:38.995Z,2.55
2022-11-17T23:09:06.002Z,3.00
2022-11-17T23:11:37.814Z,1.52
2022-11-17T23:14:07.884Z,3.05
2022-11-17T23:16:35.603Z,2.38
2022-11-17T23:19:02.579Z,2.70
2022-11-17T23:21:29.685Z,3.10
2022-11-17T23:23:57.275Z,3.47
2022-11-17T23:26:24.204Z,3.42
2022-11-17T23:28:51.154Z,3.85
2022-11-17T23:31:18.708Z,2.75
2022-11-17T23:33:47.927Z,3.05
2022-11-17T23:36:20.591Z,2.38
2022-11-17T23:38:49.072Z,2.20
2022-11-17T23:41:19.207Z,2.60
2022-11-17T23:43:48.723Z,2.15
2022-11-17T23:46:18.752Z,2.50
2022-11-17T23:48:48.557Z,2.03
2022-11-17T23:51:21.909Z,2.72
2022-11-17T23:53:49.737Z,2.45
2022-11-17T23:56:19.106Z,2.40
2022-11-17T23:58:46.071Z,3.15
